createdAt,value
2018-12-30T00:00:43.762Z,3.70
2018-12-30T00:01:43.798Z,4.20
2018-12-30T00:02:43.759Z,4.50
2018-12-30T00:03:43.718Z,4.20
2018-12-30T00:04:43.739Z,2.70
2018-12-30T00:05:43.762Z,5.10
2018-12-30T00:06:43.657Z,2.90
2018-12-30T00:07:43.656Z,2.80
2018-12-30T00:08:43.664Z,3.30
2018-12-30T00:09:43.626Z,4.70
2018-12-30T00:10:43.703Z,2.70
2018-12-30T00:11:43.602Z,3.40
2018-12-30T00:12:43.601Z,3.20
2018-12-30T00:13:43.609Z,4.80
2018-12-30T00:14:43.606Z,2.80
2018-12-30T00:15:43.554Z,3.60
2018-12-30T00:16:43.545Z,3.70
2018-12-30T00:17:43.542Z,3.40
2018-12-30T00:18:43.532Z,4.60
2018-12-30T00:19:43.540Z,5.90
2018-12-30T00:20:43.498Z,4.30
2018-12-30T00:21:43.488Z,2.90
2018-12-30T00:22:43.483Z,3.80
2018-12-30T00:23:43.474Z,3.90
2018-12-30T00:24:43.480Z,4.00
2018-12-30T00:25:43.473Z,3.80
2018-12-30T00:26:43.439Z,4.90
2018-12-30T00:27:43.436Z,3.40
2018-12-30T00:28:43.422Z,3.70
2018-12-30T00:29:43.438Z,3.70
2018-12-30T00:30:43.416Z,3.90
2018-12-30T00:31:43.405Z,4.00
2018-12-30T00:32:43.384Z,5.90
2018-12-30T00:33:43.370Z,5.00
2018-12-30T00:34:43.384Z,6.30
2018-12-30T00:35:43.346Z,4.60
2018-12-30T00:36:43.346Z,4.00
2018-12-30T00:37:43.320Z,5.70
2018-12-30T00:38:43.312Z,3.90
2018-12-30T00:39:43.345Z,6.00
2018-12-30T00:40:43.307Z,4.30
2018-12-30T00:41:43.295Z,2.90
2018-12-30T00:42:43.287Z,5.00
2018-12-30T00:43:43.260Z,3.00
2018-12-30T00:44:43.270Z,3.50
2018-12-30T00:45:43.274Z,3.70
2018-12-30T00:46:43.222Z,4.00
2018-12-30T00:47:43.222Z,5.00
2018-12-30T00:48:43.221Z,4.90
2018-12-30T00:49:43.232Z,3.10
2018-12-30T00:50:43.184Z,4.00
2018-12-30T00:51:43.179Z,4.10
2018-12-30T00:52:43.155Z,4.20
2018-12-30T00:53:43.162Z,3.60
2018-12-30T00:54:43.139Z,4.50
2018-12-30T00:55:43.170Z,5.50
2018-12-30T00:56:43.117Z,6.10
2018-12-30T00:57:43.108Z,3.70
2018-12-30T00:58:43.092Z,4.50
2018-12-30T00:59:43.101Z,5.20
2018-12-30T01:00:43.113Z,4.50
2018-12-30T01:01:43.063Z,4.30
2018-12-30T01:02:43.057Z,4.80
2018-12-30T01:03:43.114Z,5.30
2018-12-30T01:04:43.097Z,7.80
2018-12-30T01:05:43.047Z,3.60
2018-12-30T01:06:43.011Z,4.80
2018-12-30T01:07:42.998Z,4.70
2018-12-30T01:08:42.980Z,5.30
2018-12-30T01:09:42.986Z,4.20
2018-12-30T01:10:42.986Z,7.40
2018-12-30T01:11:42.969Z,5.80
2018-12-30T01:12:42.942Z,3.40
2018-12-30T01:13:42.929Z,5.10
2018-12-30T01:14:42.918Z,5.10
2018-12-30T01:15:42.942Z,5.80
2018-12-30T01:16:42.904Z,4.70
2018-12-30T01:17:42.882Z,2.90
2018-12-30T01:18:42.879Z,2.10
2018-12-30T01:19:42.862Z,3.30
2018-12-30T01:20:42.885Z,4.90
2018-12-30T01:21:42.842Z,2.90
2018-12-30T01:22:42.844Z,3.90
2018-12-30T01:23:42.823Z,3.40
2018-12-30T01:24:42.814Z,5.80
2018-12-30T01:25:42.818Z,3.50
2018-12-30T01:26:42.803Z,3.20
2018-12-30T01:27:42.780Z,2.90
2018-12-30T01:28:42.780Z,2.60
2018-12-30T01:29:42.756Z,2.60
2018-12-30T01:30:42.848Z,4.00
2018-12-30T01:31:42.738Z,4.90
2018-12-30T01:32:42.746Z,4.10
2018-12-30T01:33:42.718Z,3.50
2018-12-30T01:34:42.714Z,3.20
2018-12-30T01:35:42.721Z,2.40
2018-12-30T01:36:42.683Z,3.40
2018-12-30T01:37:42.673Z,3.00
2018-12-30T01:38:42.667Z,3.00
2018-12-30T01:39:42.650Z,3.40
2018-12-30T01:40:42.670Z,4.70
2018-12-30T01:41:42.630Z,4.00
2018-12-30T01:42:42.620Z,3.10
2018-12-30T01:43:42.607Z,3.10
2018-12-30T01:44:42.602Z,5.50
2018-12-30T01:45:42.626Z,15.90
2018-12-30T01:46:42.589Z,15.30
2018-12-30T01:47:42.566Z,15.10
2018-12-30T01:48:42.550Z,16.40
2018-12-30T01:49:42.550Z,13.30
2018-12-30T01:50:42.576Z,13.40
2018-12-30T01:51:42.532Z,15.50
2018-12-30T01:52:42.518Z,13.40
2018-12-30T01:53:42.502Z,15.40
2018-12-30T01:54:42.493Z,14.20
2018-12-30T01:55:42.494Z,13.90
2018-12-30T01:56:42.669Z,12.80
2018-12-30T01:57:42.470Z,12.50
2018-12-30T01:58:42.451Z,11.70
2018-12-30T01:59:42.436Z,11.40
2018-12-30T02:00:42.427Z,12.00
2018-12-30T02:01:42.426Z,13.20
2018-12-30T02:02:42.412Z,12.60
2018-12-30T02:03:42.408Z,13.60
2018-12-30T02:04:42.384Z,15.20
2018-12-30T02:05:42.380Z,11.80
2018-12-30T02:06:42.386Z,13.20
2018-12-30T02:07:42.356Z,12.20
2018-12-30T02:08:42.346Z,12.10
2018-12-30T02:09:42.332Z,11.20
2018-12-30T02:10:42.317Z,12.10
2018-12-30T02:11:42.327Z,10.40
2018-12-30T02:12:42.304Z,12.20
2018-12-30T02:13:42.290Z,11.80
2018-12-30T02:14:42.298Z,11.90
2018-12-30T02:15:42.271Z,11.90
2018-12-30T02:16:42.278Z,11.50
2018-12-30T02:17:42.246Z,13.10
2018-12-30T02:18:42.235Z,11.10
2018-12-30T02:19:42.223Z,10.70
2018-12-30T02:20:42.220Z,13.30
2018-12-30T02:21:42.234Z,11.80
2018-12-30T02:22:42.190Z,13.00
2018-12-30T02:23:42.183Z,12.80
2018-12-30T02:24:42.194Z,12.30
2018-12-30T02:25:42.156Z,12.40
2018-12-30T02:26:42.174Z,11.60
2018-12-30T02:27:42.135Z,12.30
2018-12-30T02:28:42.126Z,11.80
2018-12-30T02:29:42.118Z,11.30
2018-12-30T02:30:42.105Z,11.70
2018-12-30T02:31:42.133Z,9.70
2018-12-30T02:32:42.123Z,11.20
2018-12-30T02:33:42.074Z,10.70
2018-12-30T02:34:42.064Z,10.70
2018-12-30T02:35:42.056Z,12.10
2018-12-30T02:36:42.062Z,12.90
2018-12-30T02:37:42.032Z,10.90
2018-12-30T02:38:42.028Z,10.90
2018-12-30T02:39:42.008Z,10.30
2018-12-30T02:40:41.996Z,18.80
2018-12-30T02:41:42.015Z,13.10
2018-12-30T02:42:42.006Z,9.70
2018-12-30T02:43:41.976Z,9.80
2018-12-30T02:44:41.984Z,9.70
2018-12-30T02:45:41.952Z,11.10
2018-12-30T02:46:41.934Z,11.20
2018-12-30T02:47:41.950Z,10.20
2018-12-30T02:48:41.928Z,11.00
2018-12-30T02:49:41.904Z,7.10
2018-12-30T02:50:41.895Z,9.60
2018-12-30T02:51:50.060Z,7.90
2018-12-30T02:52:42.884Z,9.80
2018-12-30T02:53:41.859Z,10.20
2018-12-30T02:54:41.854Z,10.70
2018-12-30T02:55:41.850Z,8.10
2018-12-30T02:56:41.832Z,6.30
2018-12-30T02:57:41.951Z,5.90
2018-12-30T02:58:41.814Z,7.40
2018-12-30T02:59:41.798Z,4.90
2018-12-30T03:00:41.792Z,7.50
2018-12-30T03:01:41.789Z,4.70
2018-12-30T03:02:41.779Z,8.30
2018-12-30T03:03:41.767Z,7.90
2018-12-30T03:04:41.745Z,6.80
2018-12-30T03:05:41.732Z,7.00
2018-12-30T03:06:41.728Z,5.70
2018-12-30T03:07:41.734Z,5.50
2018-12-30T03:08:41.696Z,5.60
2018-12-30T03:09:41.689Z,7.50
2018-12-30T03:10:41.679Z,6.80
2018-12-30T03:11:41.674Z,4.50
2018-12-30T03:12:41.681Z,5.30
2018-12-30T03:13:41.647Z,6.50
2018-12-30T03:14:41.635Z,4.60
2018-12-30T03:15:41.621Z,7.10
2018-12-30T03:16:41.616Z,5.50
2018-12-30T03:17:41.633Z,3.50
2018-12-30T03:18:41.595Z,4.20
2018-12-30T03:19:41.587Z,4.20
2018-12-30T03:20:41.605Z,3.90
2018-12-30T03:21:41.573Z,1.80
2018-12-30T03:22:41.553Z,3.00
2018-12-30T03:23:41.562Z,2.90
2018-12-30T03:24:41.535Z,4.20
2018-12-30T03:25:41.534Z,3.20
2018-12-30T03:26:41.511Z,4.60
2018-12-30T03:27:41.506Z,5.50
2018-12-30T03:28:41.604Z,2.20
2018-12-30T03:29:41.479Z,1.60
2018-12-30T03:30:42.301Z,4.20
2018-12-30T03:31:41.466Z,4.10
2018-12-30T03:32:41.450Z,2.90
2018-12-30T03:33:41.450Z,2.20
2018-12-30T03:34:41.427Z,2.70
2018-12-30T03:35:41.407Z,3.00
2018-12-30T03:36:41.495Z,3.10
2018-12-30T03:37:41.390Z,3.50
2018-12-30T03:38:41.395Z,2.70
2018-12-30T03:39:41.373Z,2.70
2018-12-30T03:40:41.358Z,2.90
2018-12-30T03:41:41.347Z,3.20
2018-12-30T03:42:41.339Z,2.20
2018-12-30T03:43:41.349Z,3.70
2018-12-30T03:44:41.318Z,2.00
2018-12-30T03:45:41.313Z,2.60
2018-12-30T03:46:41.308Z,2.00
2018-12-30T03:47:41.285Z,3.30
2018-12-30T03:48:41.299Z,2.70
2018-12-30T03:49:41.266Z,3.70
2018-12-30T03:50:41.298Z,2.00
2018-12-30T03:51:41.269Z,2.60
2018-12-30T03:52:41.239Z,3.50
2018-12-30T03:53:41.256Z,2.80
2018-12-30T03:54:41.215Z,3.20
2018-12-30T03:55:41.197Z,2.40
2018-12-30T03:56:41.185Z,2.40
2018-12-30T03:57:41.184Z,3.20
2018-12-30T03:58:41.196Z,2.00
2018-12-30T03:59:41.161Z,3.60
2018-12-30T04:00:41.147Z,2.50
2018-12-30T04:01:41.144Z,2.60
2018-12-30T04:02:41.878Z,2.80
2018-12-30T04:03:41.328Z,2.60
2018-12-30T04:04:41.098Z,3.50
2018-12-30T04:05:41.093Z,3.30
2018-12-30T04:06:41.098Z,2.90
2018-12-30T04:07:41.069Z,2.50
2018-12-30T04:08:41.091Z,1.20
2018-12-30T04:09:41.054Z,4.90
2018-12-30T04:10:41.039Z,2.20
2018-12-30T04:11:41.037Z,3.20
2018-12-30T04:12:41.020Z,4.30
2018-12-30T04:13:41.016Z,4.10
2018-12-30T04:14:41.021Z,3.10
2018-12-30T04:15:40.993Z,2.60
2018-12-30T04:16:40.975Z,4.90
2018-12-30T04:17:40.975Z,3.10
2018-12-30T04:18:40.951Z,4.10
2018-12-30T04:19:40.959Z,3.20
2018-12-30T04:20:40.940Z,2.50
2018-12-30T04:21:40.933Z,3.90
2018-12-30T04:22:40.913Z,3.90
2018-12-30T04:23:40.920Z,4.60
2018-12-30T04:24:40.920Z,3.60
2018-12-30T04:25:40.880Z,3.00
2018-12-30T04:26:40.870Z,2.80
2018-12-30T04:27:40.878Z,3.70
2018-12-30T04:28:40.851Z,2.80
2018-12-30T04:29:40.855Z,5.10
2018-12-30T04:30:40.830Z,2.60
2018-12-30T04:31:40.814Z,3.10
2018-12-30T04:32:40.808Z,3.80
2018-12-30T04:33:40.796Z,3.40
2018-12-30T04:34:40.803Z,3.30
2018-12-30T04:35:40.780Z,2.60
2018-12-30T04:36:40.770Z,2.70
2018-12-30T04:37:40.796Z,3.30
2018-12-30T04:38:40.746Z,3.50
2018-12-30T04:39:40.752Z,2.60
2018-12-30T04:40:40.722Z,2.80
2018-12-30T04:41:40.724Z,3.60
2018-12-30T04:42:40.696Z,2.00
2018-12-30T04:43:40.688Z,2.00
2018-12-30T04:44:40.699Z,4.50
2018-12-30T04:45:40.667Z,3.40
2018-12-30T04:46:40.658Z,2.50
2018-12-30T04:47:40.654Z,3.30
2018-12-30T04:48:40.634Z,3.30
2018-12-30T04:49:40.632Z,2.70
2018-12-30T04:50:40.610Z,3.30
2018-12-30T04:51:40.617Z,2.30
2018-12-30T04:52:40.604Z,1.60
2018-12-30T04:53:40.583Z,2.60
2018-12-30T04:54:40.608Z,2.40
2018-12-30T04:55:40.575Z,1.50
2018-12-30T04:56:40.562Z,2.30
2018-12-30T04:57:40.540Z,2.70
2018-12-30T04:58:40.533Z,2.10
2018-12-30T04:59:40.648Z,2.40
2018-12-30T05:00:40.515Z,2.10
2018-12-30T05:01:40.502Z,1.80
2018-12-30T05:02:40.502Z,2.20
2018-12-30T05:03:40.474Z,2.70
2018-12-30T05:04:40.466Z,2.20
2018-12-30T05:05:40.480Z,1.70
2018-12-30T05:06:40.473Z,1.20
2018-12-30T05:07:40.448Z,2.20
2018-12-30T05:08:40.430Z,1.70
2018-12-30T05:09:40.408Z,1.90
2018-12-30T05:10:40.419Z,1.80
2018-12-30T05:12:41.549Z,1.80
2018-12-30T05:13:40.372Z,1.70
2018-12-30T05:14:40.358Z,1.40
2018-12-30T05:15:40.441Z,1.20
2018-12-30T05:16:40.342Z,2.40
2018-12-30T05:17:40.329Z,1.70
2018-12-30T05:18:40.316Z,2.20
2018-12-30T05:19:40.306Z,1.10
2018-12-30T05:20:40.310Z,0.90
2018-12-30T05:21:40.282Z,1.10
2018-12-30T05:22:40.275Z,1.40
2018-12-30T05:23:40.260Z,1.00
2018-12-30T05:24:40.256Z,0.70
2018-12-30T05:25:40.261Z,0.90
2018-12-30T05:26:40.232Z,1.00
2018-12-30T05:27:40.226Z,1.30
2018-12-30T05:28:40.222Z,1.00
2018-12-30T05:29:40.196Z,2.70
2018-12-30T05:30:40.215Z,0.70
2018-12-30T05:31:40.180Z,1.00
2018-12-30T05:32:40.163Z,1.40
2018-12-30T05:33:40.171Z,1.30
2018-12-30T05:34:40.139Z,0.90
2018-12-30T05:35:40.154Z,0.90
2018-12-30T05:36:40.168Z,1.00
2018-12-30T05:37:40.124Z,0.80
2018-12-30T05:38:40.100Z,1.50
2018-12-30T05:39:40.096Z,1.80
2018-12-30T05:40:40.100Z,0.90
2018-12-30T05:41:40.077Z,1.20
2018-12-30T05:42:40.058Z,0.80
2018-12-30T05:43:40.052Z,1.10
2018-12-30T05:44:40.054Z,0.80
2018-12-30T05:45:40.087Z,0.80
2018-12-30T05:46:40.038Z,1.60
2018-12-30T05:47:40.019Z,0.60
2018-12-30T05:48:39.990Z,0.90
2018-12-30T05:49:40.020Z,2.30
2018-12-30T05:50:39.982Z,0.80
2018-12-30T05:51:39.982Z,1.40
2018-12-30T05:52:42.071Z,1.10
2018-12-30T05:53:39.946Z,0.90
2018-12-30T05:54:39.937Z,0.80
2018-12-30T05:55:39.921Z,1.90
2018-12-30T05:56:39.938Z,1.30
2018-12-30T05:57:39.896Z,0.90
2018-12-30T05:58:39.894Z,1.20
2018-12-30T05:59:39.884Z,1.10
2018-12-30T06:00:39.910Z,0.70
2018-12-30T06:01:39.871Z,0.70
2018-12-30T06:02:39.846Z,0.70
2018-12-30T06:03:39.834Z,0.80
2018-12-30T06:04:39.834Z,1.00
2018-12-30T06:05:39.812Z,0.80
2018-12-30T06:06:39.844Z,0.80
2018-12-30T06:07:39.796Z,1.70
2018-12-30T06:08:39.788Z,0.80
2018-12-30T06:09:39.776Z,0.80
2018-12-30T06:10:39.763Z,1.10
2018-12-30T06:11:39.752Z,1.20
2018-12-30T06:12:39.754Z,1.40
2018-12-30T06:13:39.729Z,1.60
2018-12-30T06:14:39.730Z,0.80
2018-12-30T06:15:39.706Z,1.70
2018-12-30T06:16:39.693Z,1.70
2018-12-30T06:17:39.708Z,1.60
2018-12-30T06:18:39.674Z,2.10
2018-12-30T06:19:39.666Z,1.40
2018-12-30T06:20:39.666Z,1.20
2018-12-30T06:21:39.645Z,0.80
2018-12-30T06:22:39.650Z,1.20
2018-12-30T06:23:39.622Z,2.50
2018-12-30T06:24:39.616Z,1.10
2018-12-30T06:25:39.604Z,1.90
2018-12-30T06:26:39.600Z,1.90
2018-12-30T06:27:39.619Z,1.60
2018-12-30T06:28:39.580Z,1.30
2018-12-30T06:29:39.555Z,3.50
2018-12-30T06:30:39.548Z,1.50
2018-12-30T06:31:39.547Z,1.90
2018-12-30T06:32:39.549Z,3.00
2018-12-30T06:33:39.516Z,1.00
2018-12-30T06:34:39.510Z,2.30
2018-12-30T06:35:39.495Z,2.70
2018-12-30T06:36:39.478Z,3.20
2018-12-30T06:37:39.490Z,2.40
2018-12-30T06:38:39.458Z,2.60
2018-12-30T06:39:39.451Z,2.10
2018-12-30T06:40:39.437Z,1.40
2018-12-30T06:41:39.434Z,2.30
2018-12-30T06:42:39.442Z,2.80
2018-12-30T06:43:39.411Z,2.30
2018-12-30T06:44:39.401Z,3.10
2018-12-30T06:45:39.396Z,3.00
2018-12-30T06:46:39.378Z,2.50
2018-12-30T06:47:39.384Z,2.70
2018-12-30T06:48:39.357Z,2.40
2018-12-30T06:49:39.346Z,3.60
2018-12-30T06:50:39.337Z,3.30
2018-12-30T06:51:39.330Z,2.00
2018-12-30T06:52:39.329Z,2.40
2018-12-30T06:53:39.302Z,2.10
2018-12-30T06:54:39.292Z,1.90
2018-12-30T06:55:39.284Z,3.20
2018-12-30T06:56:39.266Z,2.20
2018-12-30T06:57:39.287Z,2.60
2018-12-30T06:58:39.249Z,1.70
2018-12-30T06:59:39.241Z,2.20
2018-12-30T07:00:39.231Z,3.20
2018-12-30T07:01:39.212Z,2.20
2018-12-30T07:02:39.230Z,2.10
2018-12-30T07:03:39.192Z,3.10
2018-12-30T07:04:39.182Z,2.30
2018-12-30T07:05:39.175Z,2.80
2018-12-30T07:06:39.172Z,2.90
2018-12-30T07:07:39.224Z,2.50
2018-12-30T07:08:39.150Z,3.30
2018-12-30T07:09:39.136Z,4.60
2018-12-30T07:10:39.122Z,1.80
2018-12-30T07:11:39.112Z,2.20
2018-12-30T07:12:39.115Z,3.70
2018-12-30T07:13:39.114Z,2.70
2018-12-30T07:14:39.082Z,3.60
2018-12-30T07:15:39.066Z,1.90
2018-12-30T07:16:39.055Z,3.20
2018-12-30T07:17:39.046Z,2.50
2018-12-30T07:18:39.054Z,1.50
2018-12-30T07:19:39.028Z,4.70
2018-12-30T07:20:39.078Z,3.60
2018-12-30T07:21:39.004Z,2.00
2018-12-30T07:22:39.002Z,2.70
2018-12-30T07:23:39.006Z,2.80
2018-12-30T07:24:38.974Z,2.40
2018-12-30T07:25:38.970Z,3.00
2018-12-30T07:26:38.968Z,3.40
2018-12-30T07:27:38.942Z,2.70
2018-12-30T07:28:38.945Z,2.20
2018-12-30T07:29:38.928Z,2.30
2018-12-30T07:30:38.915Z,2.80
2018-12-30T07:31:38.905Z,3.20
2018-12-30T07:32:38.884Z,2.70
2018-12-30T07:33:38.894Z,5.00
2018-12-30T07:34:38.865Z,4.70
2018-12-30T07:35:38.856Z,2.40
2018-12-30T07:36:38.849Z,3.40
2018-12-30T07:37:38.841Z,3.20
2018-12-30T07:38:38.847Z,2.90
2018-12-30T07:39:38.806Z,3.30
2018-12-30T07:40:38.804Z,2.90
2018-12-30T07:41:38.790Z,2.40
2018-12-30T07:42:38.798Z,5.60
2018-12-30T07:43:38.786Z,4.40
2018-12-30T07:44:38.757Z,2.60
2018-12-30T07:45:38.750Z,2.50
2018-12-30T07:46:38.735Z,3.10
2018-12-30T07:47:38.736Z,3.40
2018-12-30T07:48:38.738Z,2.50
2018-12-30T07:49:38.700Z,3.20
2018-12-30T07:50:38.692Z,4.70
2018-12-30T07:51:38.689Z,5.50
2018-12-30T07:52:38.680Z,4.00
2018-12-30T07:53:38.680Z,2.30
2018-12-30T07:54:38.658Z,3.80
2018-12-30T07:55:38.645Z,4.00
2018-12-30T07:56:38.630Z,2.20
2018-12-30T07:57:38.628Z,2.90
2018-12-30T07:58:38.630Z,4.50
2018-12-30T07:59:38.608Z,2.40
2018-12-30T08:00:38.591Z,3.40
2018-12-30T08:01:38.583Z,3.40
2018-12-30T08:02:38.571Z,2.10
2018-12-30T08:03:38.591Z,4.10
2018-12-30T08:04:38.545Z,2.90
2018-12-30T08:05:38.540Z,4.30
2018-12-30T08:06:38.527Z,2.80
2018-12-30T08:07:38.518Z,5.00
2018-12-30T08:08:38.502Z,2.50
2018-12-30T08:09:38.511Z,4.40
2018-12-30T08:10:38.499Z,3.20
2018-12-30T08:11:38.481Z,6.00
2018-12-30T08:12:38.465Z,3.20
2018-12-30T08:13:38.458Z,2.30
2018-12-30T08:14:38.469Z,3.90
2018-12-30T08:15:38.430Z,4.70
2018-12-30T08:16:38.424Z,3.40
2018-12-30T08:17:38.423Z,3.20
2018-12-30T08:18:38.401Z,3.10
2018-12-30T08:19:38.409Z,4.20
2018-12-30T08:20:38.379Z,3.80
2018-12-30T08:21:38.380Z,4.00
2018-12-30T08:22:38.363Z,6.30
2018-12-30T08:23:38.361Z,4.70
2018-12-30T08:24:38.367Z,2.00
2018-12-30T08:25:38.325Z,2.30
2018-12-30T08:26:38.321Z,3.40
2018-12-30T08:27:38.305Z,3.20
2018-12-30T08:28:38.303Z,4.40
2018-12-30T08:29:38.309Z,4.40
2018-12-30T08:30:38.273Z,3.80
2018-12-30T08:31:38.264Z,4.00
2018-12-30T08:32:38.253Z,3.90
2018-12-30T08:33:38.235Z,2.20
2018-12-30T08:34:38.253Z,5.30
2018-12-30T08:35:38.225Z,3.70
2018-12-30T08:36:38.213Z,2.10
2018-12-30T08:37:38.203Z,3.10
2018-12-30T08:38:38.197Z,2.90
2018-12-30T08:39:39.867Z,2.00
2018-12-30T08:40:38.186Z,4.30
2018-12-30T08:41:38.175Z,1.60
2018-12-30T08:42:38.147Z,4.70
2018-12-30T08:43:38.131Z,5.70
2018-12-30T08:44:38.145Z,2.90
2018-12-30T08:45:38.114Z,5.90
2018-12-30T08:46:38.114Z,3.30
2018-12-30T08:47:38.090Z,2.80
2018-12-30T08:48:38.077Z,4.10
2018-12-30T08:49:38.111Z,1.60
2018-12-30T08:50:38.083Z,2.80
2018-12-30T08:51:38.055Z,2.60
2018-12-30T08:52:38.047Z,2.90
2018-12-30T08:53:38.894Z,3.70
2018-12-30T08:54:38.017Z,4.80
2018-12-30T08:55:38.085Z,3.90
2018-12-30T08:56:37.998Z,2.00
2018-12-30T08:57:37.993Z,4.10
2018-12-30T08:58:37.993Z,3.60
2018-12-30T08:59:37.962Z,3.70
2018-12-30T09:00:37.967Z,4.00
2018-12-30T09:01:37.953Z,3.00
2018-12-30T09:02:37.932Z,2.60
2018-12-30T09:03:37.935Z,2.70
2018-12-30T09:04:37.932Z,5.10
2018-12-30T09:05:37.998Z,3.70
2018-12-30T09:06:37.892Z,6.10
2018-12-30T09:07:37.886Z,4.70
2018-12-30T09:08:37.884Z,2.90
2018-12-30T09:09:37.866Z,3.80
2018-12-30T09:10:37.879Z,4.50
2018-12-30T09:11:37.836Z,3.60
2018-12-30T09:12:37.832Z,3.70
2018-12-30T09:13:37.832Z,2.60
2018-12-30T09:14:37.812Z,2.30
2018-12-30T09:15:37.825Z,3.00
2018-12-30T09:16:37.818Z,5.80
2018-12-30T09:17:38.334Z,4.40
2018-12-30T09:18:37.763Z,3.70
2018-12-30T09:19:37.760Z,2.50
2018-12-30T09:20:37.774Z,3.40
2018-12-30T09:21:37.754Z,6.40
2018-12-30T09:22:37.718Z,4.10
2018-12-30T09:23:37.821Z,6.10
2018-12-30T09:24:37.703Z,6.30
2018-12-30T09:25:37.709Z,6.10
2018-12-30T09:26:37.694Z,2.90
2018-12-30T09:27:37.684Z,6.10
2018-12-30T09:28:37.656Z,2.60
2018-12-30T09:29:37.643Z,6.40
2018-12-30T09:30:37.634Z,5.20
2018-12-30T09:31:37.656Z,4.50
2018-12-30T09:32:37.617Z,3.20
2018-12-30T09:33:37.616Z,6.00
2018-12-30T09:34:37.595Z,3.30
2018-12-30T09:35:37.582Z,3.40
2018-12-30T09:36:37.600Z,4.20
2018-12-30T09:37:37.564Z,4.70
2018-12-30T09:38:37.562Z,5.00
2018-12-30T09:39:37.556Z,5.20
2018-12-30T09:40:37.534Z,5.80
2018-12-30T09:41:37.538Z,4.40
2018-12-30T09:42:37.503Z,5.40
2018-12-30T09:43:37.503Z,3.70
2018-12-30T09:44:37.492Z,5.50
2018-12-30T09:45:37.475Z,6.60
2018-12-30T09:46:37.485Z,4.70
2018-12-30T09:47:37.458Z,4.30
2018-12-30T09:48:37.456Z,3.80
2018-12-30T09:49:37.442Z,7.40
2018-12-30T09:50:37.445Z,5.40
2018-12-30T09:51:37.454Z,2.90
2018-12-30T09:52:37.401Z,5.60
2018-12-30T09:53:44.926Z,5.90
2018-12-30T09:54:38.402Z,3.20
2018-12-30T09:55:37.372Z,5.50
2018-12-30T09:56:37.391Z,6.80
2018-12-30T09:57:37.359Z,4.90
2018-12-30T09:58:37.340Z,2.60
2018-12-30T09:59:37.330Z,7.70
2018-12-30T10:00:37.316Z,5.40
2018-12-30T10:01:37.333Z,4.70
2018-12-30T10:02:37.305Z,8.20
2018-12-30T10:03:37.278Z,5.30
2018-12-30T10:04:37.271Z,5.60
2018-12-30T10:05:37.260Z,7.50
2018-12-30T10:06:37.285Z,2.80
2018-12-30T10:07:37.247Z,2.90
2018-12-30T10:08:37.238Z,4.60
2018-12-30T10:09:37.220Z,4.50
2018-12-30T10:10:37.212Z,6.20
2018-12-30T10:11:37.897Z,5.60
2018-12-30T10:12:37.217Z,3.90
2018-12-30T10:13:37.197Z,4.30
2018-12-30T10:14:37.194Z,6.10
2018-12-30T10:15:37.159Z,7.20
2018-12-30T10:16:37.144Z,3.00
2018-12-30T10:17:37.150Z,5.70
2018-12-30T10:18:37.128Z,6.40
2018-12-30T10:19:37.114Z,6.00
2018-12-30T10:20:37.102Z,5.40
2018-12-30T10:21:37.092Z,5.60
2018-12-30T10:22:37.104Z,8.00
2018-12-30T10:23:37.094Z,4.30
2018-12-30T10:24:37.062Z,4.90
2018-12-30T10:25:37.069Z,6.40
2018-12-30T10:26:37.037Z,6.00
2018-12-30T10:27:37.043Z,3.70
2018-12-30T10:28:37.865Z,5.20
2018-12-30T10:29:37.019Z,5.60
2018-12-30T10:30:37.006Z,5.90
2018-12-30T10:31:36.993Z,8.20
2018-12-30T10:32:36.997Z,5.70
2018-12-30T10:33:36.965Z,5.50
2018-12-30T10:34:36.959Z,5.60
2018-12-30T10:35:36.948Z,5.90
2018-12-30T10:36:36.938Z,2.90
2018-12-30T10:37:36.952Z,6.00
2018-12-30T10:38:36.931Z,5.00
2018-12-30T10:39:36.905Z,5.90
2018-12-30T10:40:36.889Z,6.00
2018-12-30T10:41:36.880Z,5.40
2018-12-30T10:42:36.881Z,5.10
2018-12-30T10:43:36.885Z,4.20
2018-12-30T10:44:36.848Z,6.90
2018-12-30T10:45:36.839Z,6.00
2018-12-30T10:46:36.825Z,4.90
2018-12-30T10:47:36.830Z,5.10
2018-12-30T10:48:36.831Z,3.50
2018-12-30T10:49:36.796Z,5.90
2018-12-30T10:50:36.783Z,4.60
2018-12-30T10:51:36.779Z,3.80
2018-12-30T10:52:36.764Z,6.00
2018-12-30T10:53:36.804Z,6.40
2018-12-30T10:54:36.738Z,8.20
2018-12-30T10:55:36.799Z,5.60
2018-12-30T10:56:36.715Z,5.30
2018-12-30T10:57:36.705Z,5.80
2018-12-30T10:58:36.716Z,3.70
2018-12-30T10:59:36.697Z,4.80
2018-12-30T11:00:36.682Z,5.60
2018-12-30T11:01:36.671Z,4.70
2018-12-30T11:02:36.655Z,6.80
2018-12-30T11:03:36.664Z,7.30
2018-12-30T11:04:38.332Z,4.80
2018-12-30T11:05:36.637Z,5.30
2018-12-30T11:06:36.640Z,4.90
2018-12-30T11:07:36.660Z,6.20
2018-12-30T11:08:36.669Z,6.40
2018-12-30T11:09:36.595Z,7.20
2018-12-30T11:10:36.593Z,4.90
2018-12-30T11:11:36.588Z,7.50
2018-12-30T11:12:36.601Z,6.40
2018-12-30T11:13:36.576Z,5.20
2018-12-30T11:14:36.551Z,4.30
2018-12-30T11:15:36.540Z,5.20
2018-12-30T11:16:36.528Z,4.10
2018-12-30T11:17:36.529Z,4.30
2018-12-30T11:18:36.538Z,6.20
2018-12-30T11:19:36.485Z,5.80
2018-12-30T11:20:36.481Z,4.90
2018-12-30T11:21:36.464Z,5.40
2018-12-30T11:22:36.460Z,7.10
2018-12-30T11:23:36.465Z,6.90
2018-12-30T11:24:36.445Z,9.20
2018-12-30T11:25:36.577Z,5.90
2018-12-30T11:26:36.503Z,5.90
2018-12-30T11:27:36.533Z,6.10
2018-12-30T11:28:38.554Z,8.80
2018-12-30T11:29:36.441Z,6.00
2018-12-30T11:30:36.433Z,5.00
2018-12-30T11:31:36.377Z,3.30
2018-12-30T11:32:36.349Z,3.70
2018-12-30T11:33:36.571Z,6.10
2018-12-30T11:34:38.433Z,4.50
2018-12-30T11:35:39.311Z,7.50
2018-12-30T11:37:37.628Z,7.80
2018-12-30T11:38:36.285Z,6.00
2018-12-30T11:39:44.637Z,7.20
2018-12-30T11:40:36.343Z,5.50
2018-12-30T11:41:36.302Z,6.80
2018-12-30T11:42:36.347Z,3.90
2018-12-30T11:43:36.276Z,5.00
2018-12-30T11:44:38.045Z,3.90
2018-12-30T11:47:37.413Z,5.50
2018-12-30T11:48:36.193Z,2.10
2018-12-30T11:50:13.107Z,7.10
2018-12-30T11:50:39.173Z,5.30
2018-12-30T11:51:36.154Z,4.40
2018-12-30T11:52:36.236Z,4.60
2018-12-30T11:54:38.903Z,2.60
2018-12-30T11:55:36.092Z,7.40
2018-12-30T11:56:53.480Z,6.50
2018-12-30T11:57:38.184Z,5.10
2018-12-30T11:59:37.382Z,4.60
2018-12-30T12:00:36.175Z,3.90
2018-12-30T12:01:36.061Z,4.70
2018-12-30T12:02:36.048Z,2.40
2018-12-30T12:03:38.143Z,4.10
2018-12-30T12:04:36.032Z,4.60
2018-12-30T12:06:37.178Z,4.10
2018-12-30T12:07:36.159Z,4.30
2018-12-30T12:08:36.160Z,5.60
2018-12-30T12:09:37.999Z,2.70
2018-12-30T12:10:36.144Z,6.90
2018-12-30T12:24:16.107Z,4.40
2018-12-30T12:25:16.145Z,5.00
2018-12-30T12:26:16.071Z,3.10
2018-12-30T12:27:16.049Z,3.90
2018-12-30T12:28:16.053Z,5.00
2018-12-30T12:29:16.040Z,7.60
2018-12-30T12:30:16.051Z,8.10
2018-12-30T12:31:16.009Z,3.30
2018-12-30T12:32:15.998Z,5.90
2018-12-30T12:33:15.979Z,4.90
2018-12-30T12:34:17.489Z,3.60
2018-12-30T12:35:16.441Z,4.80
2018-12-30T12:36:15.950Z,5.50
2018-12-30T12:37:15.958Z,4.10
2018-12-30T12:38:15.951Z,4.60
2018-12-30T12:39:15.922Z,5.50
2018-12-30T12:40:15.931Z,6.70
2018-12-30T12:41:15.895Z,7.70
2018-12-30T12:42:15.891Z,6.70
2018-12-30T12:43:15.887Z,6.40
2018-12-30T12:44:15.864Z,5.80
2018-12-30T12:45:15.871Z,6.80
2018-12-30T12:46:15.850Z,6.20
2018-12-30T12:47:15.833Z,5.40
2018-12-30T12:48:15.831Z,7.70
2018-12-30T12:49:15.811Z,4.60
2018-12-30T12:50:15.853Z,5.10
2018-12-30T12:51:16.348Z,6.00
2018-12-30T12:52:15.786Z,3.80
2018-12-30T12:53:15.765Z,3.20
2018-12-30T12:54:15.763Z,3.20
2018-12-30T12:55:15.779Z,3.20
2018-12-30T12:56:15.736Z,6.10
2018-12-30T12:57:15.733Z,4.20
2018-12-30T12:58:15.743Z,4.40
2018-12-30T12:59:15.741Z,4.50
2018-12-30T13:00:15.745Z,5.60
2018-12-30T13:01:15.720Z,5.60
2018-12-30T13:02:15.689Z,4.70
2018-12-30T13:03:15.673Z,5.20
2018-12-30T13:04:15.673Z,4.50
2018-12-30T13:05:15.705Z,5.40
2018-12-30T13:06:15.649Z,5.80
2018-12-30T13:07:15.621Z,6.10
2018-12-30T13:08:15.612Z,3.10
2018-12-30T13:09:15.599Z,2.90
2018-12-30T13:10:15.586Z,5.40
2018-12-30T13:11:15.591Z,4.00
2018-12-30T13:12:15.571Z,4.30
2018-12-30T13:13:15.551Z,3.90
2018-12-30T13:14:15.547Z,5.20
2018-12-30T13:15:15.527Z,4.80
2018-12-30T13:16:15.551Z,5.40
2018-12-30T13:17:15.517Z,4.30
2018-12-30T13:18:15.510Z,4.20
2018-12-30T13:19:15.518Z,5.30
2018-12-30T13:20:15.487Z,4.60
2018-12-30T13:21:15.586Z,5.40
2018-12-30T13:22:15.461Z,3.20
2018-12-30T13:23:15.462Z,4.80
2018-12-30T13:24:15.449Z,4.10
2018-12-30T13:25:15.423Z,7.20
2018-12-30T13:26:15.459Z,7.50
2018-12-30T13:27:15.425Z,6.40
2018-12-30T13:28:15.395Z,7.10
2018-12-30T13:29:15.391Z,6.40
2018-12-30T13:30:15.386Z,7.40
2018-12-30T13:31:15.361Z,5.90
2018-12-30T13:32:15.365Z,5.80
2018-12-30T13:33:15.339Z,8.30
2018-12-30T13:34:15.341Z,4.00
2018-12-30T13:35:15.338Z,3.90
2018-12-30T13:36:15.312Z,7.40